Weather at Cox's Bazar Airport

Public forecast

Using degrees Celsius for public forecast. Weather courtesy of forecast.io.

Closest aviation weather report (METAR) to Cox's Bazar Airport

Report is more than 6 hours old.

Closest report is Shah Amanat International Airport, 48.6 nm (90.0 km) N. Retrieved 2020/09/30 16:00 UTC (7 hours ago):

VGEG 301600Z 00000KT 4000 SCT018 FEW030CB BKN100 27/25 Q1005 NOSIG

Closest aviation forecast (TAF) to Cox's Bazar Airport

Closest forecast is Shah Amanat International Airport, 48.6 nm (90.0 km) N. Retrieved 2020/09/30 18:30 UTC (4 hours ago):

TAF TAF VGEG 301700Z 3018/0124 16005KT 5000 HZ SCT016 SCT100 BECMG 0102/0104 14005KT 4500 HZ SCT015 BKN100 TEMPO 0113/0120 17015KT 2000 RA/TSRA SCT008 FEW025CB OVC090 BECMG 0121/0123 16005KT 4000 HZ SCT015 SCT100